Franklinton, Kentucky
Current Conditions -  °F | °C
As of 2:53 PM on Friday 19 Dec 2014 (Local Time) from KFFT Reporting Station
Clear Clear  
Wind Chill: 33°   Ceiling: Unl
Heat Index: 33°   Visibility: 10mi
Dew Point: 21°   Wind: 3mph
Humidity: 61%   Direction: 50°NE
Pressure: 30.22"   Gusts: NA
Location:  38.369°N, 85.0622°W
Report Text: KFFT 191953Z AUTO 05003KT 10SM CLR 01/M06 A3022 RMK AO2 SLP242 T00061061
Loading
Personal Weather Stations






























Interactive Weather Map New forecast layout! Learn more

10-Day Weather Forecast

Advertisements
Track Severe Weather on mobile